sensor_id;sensor_type;location;lat;lon;timestamp;P1;durP1;ratioP1;P2;durP2;ratioP2
10467;SDS011;5281;48.878;9.394;2022-07-29T00:00:28;4.90;;;3.38;;
10467;SDS011;5281;48.878;9.394;2022-07-29T00:02:55;4.53;;;3.78;;
10467;SDS011;5281;48.878;9.394;2022-07-29T00:05:21;3.75;;;3.35;;
10467;SDS011;5281;48.878;9.394;2022-07-29T00:07:48;4.55;;;3.20;;
10467;SDS011;5281;48.878;9.394;2022-07-29T00:10:16;4.45;;;3.17;;
10467;SDS011;5281;48.878;9.394;2022-07-29T00:12:43;3.88;;;3.25;;
10467;SDS011;5281;48.878;9.394;2022-07-29T00:15:09;4.57;;;3.60;;
10467;SDS011;5281;48.878;9.394;2022-07-29T00:17:36;5.65;;;3.40;;
10467;SDS011;5281;48.878;9.394;2022-07-29T00:20:03;5.90;;;3.80;;
10467;SDS011;5281;48.878;9.394;2022-07-29T00:22:31;4.22;;;3.58;;
10467;SDS011;5281;48.878;9.394;2022-07-29T00:24:58;5.57;;;3.78;;
10467;SDS011;5281;48.878;9.394;2022-07-29T00:27:26;4.07;;;3.67;;
10467;SDS011;5281;48.878;9.394;2022-07-29T00:29:52;5.95;;;3.50;;
10467;SDS011;5281;48.878;9.394;2022-07-29T00:32:19;5.10;;;3.42;;
10467;SDS011;5281;48.878;9.394;2022-07-29T00:34:45;5.40;;;4.00;;
10467;SDS011;5281;48.878;9.394;2022-07-29T00:37:29;5.88;;;3.60;;
10467;SDS011;5281;48.878;9.394;2022-07-29T00:56:48;7.68;;;3.60;;
10467;SDS011;5281;48.878;9.394;2022-07-29T00:59:15;5.93;;;3.88;;
10467;SDS011;5281;48.878;9.394;2022-07-29T01:01:42;5.60;;;3.60;;
10467;SDS011;5281;48.878;9.394;2022-07-29T01:04:09;4.88;;;3.60;;
10467;SDS011;5281;48.878;9.394;2022-07-29T01:06:35;7.20;;;3.95;;
10467;SDS011;5281;48.878;9.394;2022-07-29T01:09:02;6.72;;;4.25;;
10467;SDS011;5281;48.878;9.394;2022-07-29T01:11:29;4.75;;;4.10;;
10467;SDS011;5281;48.878;9.394;2022-07-29T01:13:57;5.13;;;3.92;;
10467;SDS011;5281;48.878;9.394;2022-07-29T01:16:25;4.40;;;3.92;;
10467;SDS011;5281;48.878;9.394;2022-07-29T01:18:59;6.40;;;4.30;;
10467;SDS011;5281;48.878;9.394;2022-07-29T01:21:40;4.72;;;4.03;;
10467;SDS011;5281;48.878;9.394;2022-07-29T01:27:09;5.32;;;4.00;;
10467;SDS011;5281;48.878;9.394;2022-07-29T01:29:51;4.13;;;3.60;;
10467;SDS011;5281;48.878;9.394;2022-07-29T01:32:21;4.53;;;4.13;;
10467;SDS011;5281;48.878;9.394;2022-07-29T01:34:53;4.97;;;4.03;;
10467;SDS011;5281;48.878;9.394;2022-07-29T01:37:24;5.18;;;4.30;;
10467;SDS011;5281;48.878;9.394;2022-07-29T01:39:55;6.53;;;3.90;;
10467;SDS011;5281;48.878;9.394;2022-07-29T01:42:34;8.68;;;4.38;;
10467;SDS011;5281;48.878;9.394;2022-07-29T01:45:08;7.32;;;4.13;;
10467;SDS011;5281;48.878;9.394;2022-07-29T01:47:42;6.28;;;4.43;;
10467;SDS011;5281;48.878;9.394;2022-07-29T01:50:14;5.05;;;4.00;;
10467;SDS011;5281;48.878;9.394;2022-07-29T01:52:45;6.07;;;4.65;;
10467;SDS011;5281;48.878;9.394;2022-07-29T01:55:20;5.35;;;3.88;;
10467;SDS011;5281;48.878;9.394;2022-07-29T01:57:50;4.57;;;4.18;;
10467;SDS011;5281;48.878;9.394;2022-07-29T02:00:18;7.65;;;4.55;;
10467;SDS011;5281;48.878;9.394;2022-07-29T02:02:45;4.53;;;3.95;;
10467;SDS011;5281;48.878;9.394;2022-07-29T02:05:15;4.47;;;4.03;;
10467;SDS011;5281;48.878;9.394;2022-07-29T02:07:43;6.00;;;4.10;;
10467;SDS011;5281;48.878;9.394;2022-07-29T02:10:12;8.95;;;4.30;;
10467;SDS011;5281;48.878;9.394;2022-07-29T02:12:40;5.95;;;4.38;;
10467;SDS011;5281;48.878;9.394;2022-07-29T02:15:09;4.60;;;4.10;;
10467;SDS011;5281;48.878;9.394;2022-07-29T02:17:41;5.60;;;4.53;;
10467;SDS011;5281;48.878;9.394;2022-07-29T02:20:09;5.32;;;4.80;;
10467;SDS011;5281;48.878;9.394;2022-07-29T02:39:28;4.57;;;4.18;;
10467;SDS011;5281;48.878;9.394;2022-07-29T02:41:57;5.20;;;4.28;;
10467;SDS011;5281;48.878;9.394;2022-07-29T02:44:27;6.35;;;4.28;;
10467;SDS011;5281;48.878;9.394;2022-07-29T02:46:55;5.78;;;4.30;;
10467;SDS011;5281;48.878;9.394;2022-07-29T02:49:29;10.88;;;4.88;;
10467;SDS011;5281;48.878;9.394;2022-07-29T02:52:03;4.82;;;4.30;;
10467;SDS011;5281;48.878;9.394;2022-07-29T02:54:37;5.50;;;5.00;;
10467;SDS011;5281;48.878;9.394;2022-07-29T02:57:09;5.28;;;4.78;;
10467;SDS011;5281;48.878;9.394;2022-07-29T02:59:41;4.70;;;4.30;;
10467;SDS011;5281;48.878;9.394;2022-07-29T03:02:09;6.57;;;4.68;;
10467;SDS011;5281;48.878;9.394;2022-07-29T03:04:37;5.50;;;4.78;;
10467;SDS011;5281;48.878;9.394;2022-07-29T03:07:07;6.35;;;4.68;;
10467;SDS011;5281;48.878;9.394;2022-07-29T03:09:37;7.25;;;4.82;;
10467;SDS011;5281;48.878;9.394;2022-07-29T03:12:05;6.47;;;5.85;;
10467;SDS011;5281;48.878;9.394;2022-07-29T03:14:32;6.20;;;5.60;;
10467;SDS011;5281;48.878;9.394;2022-07-29T03:16:59;5.10;;;4.60;;
10467;SDS011;5281;48.878;9.394;2022-07-29T03:19:26;5.28;;;4.78;;
10467;SDS011;5281;48.878;9.394;2022-07-29T03:21:54;7.75;;;4.82;;
10467;SDS011;5281;48.878;9.394;2022-07-29T03:24:26;7.90;;;4.70;;
10467;SDS011;5281;48.878;9.394;2022-07-29T03:26:55;6.22;;;4.78;;
10467;SDS011;5281;48.878;9.394;2022-07-29T03:29:23;5.75;;;4.45;;
10467;SDS011;5281;48.878;9.394;2022-07-29T03:31:49;10.13;;;5.10;;
10467;SDS011;5281;48.878;9.394;2022-07-29T03:34:16;6.20;;;5.50;;
10467;SDS011;5281;48.878;9.394;2022-07-29T03:36:43;5.78;;;4.82;;
10467;SDS011;5281;48.878;9.394;2022-07-29T03:39:10;4.95;;;4.43;;
10467;SDS011;5281;48.878;9.394;2022-07-29T03:41:40;5.47;;;4.88;;
10467;SDS011;5281;48.878;9.394;2022-07-29T03:44:11;5.05;;;4.65;;
10467;SDS011;5281;48.878;9.394;2022-07-29T03:46:39;5.05;;;4.47;;
10467;SDS011;5281;48.878;9.394;2022-07-29T03:49:09;5.30;;;4.80;;
10467;SDS011;5281;48.878;9.394;2022-07-29T03:51:37;7.38;;;5.38;;
10467;SDS011;5281;48.878;9.394;2022-07-29T03:54:05;5.30;;;4.78;;
10467;SDS011;5281;48.878;9.394;2022-07-29T03:56:32;7.45;;;5.60;;
10467;SDS011;5281;48.878;9.394;2022-07-29T03:59:03;5.28;;;4.68;;
10467;SDS011;5281;48.878;9.394;2022-07-29T04:01:31;5.30;;;4.80;;
10467;SDS011;5281;48.878;9.394;2022-07-29T04:03:59;9.60;;;4.78;;
10467;SDS011;5281;48.878;9.394;2022-07-29T04:06:27;6.32;;;4.68;;
10467;SDS011;5281;48.878;9.394;2022-07-29T04:08:54;6.38;;;5.32;;
10467;SDS011;5281;48.878;9.394;2022-07-29T04:11:20;5.90;;;4.90;;
10467;SDS011;5281;48.878;9.394;2022-07-29T04:13:47;5.20;;;4.70;;
10467;SDS011;5281;48.878;9.394;2022-07-29T04:16:14;5.03;;;4.50;;
10467;SDS011;5281;48.878;9.394;2022-07-29T04:18:42;5.97;;;4.95;;
10467;SDS011;5281;48.878;9.394;2022-07-29T04:21:08;5.25;;;4.75;;
10467;SDS011;5281;48.878;9.394;2022-07-29T04:23:35;5.93;;;4.43;;
10467;SDS011;5281;48.878;9.394;2022-07-29T04:26:02;5.80;;;4.20;;
10467;SDS011;5281;48.878;9.394;2022-07-29T04:28:28;6.90;;;4.78;;
10467;SDS011;5281;48.878;9.394;2022-07-29T04:30:55;5.05;;;4.60;;
10467;SDS011;5281;48.878;9.394;2022-07-29T04:33:21;5.15;;;4.50;;
10467;SDS011;5281;48.878;9.394;2022-07-29T04:52:13;4.72;;;4.22;;
10467;SDS011;5281;48.878;9.394;2022-07-29T04:54:40;6.55;;;3.90;;
10467;SDS011;5281;48.878;9.394;2022-07-29T04:57:07;8.88;;;4.57;;
10467;SDS011;5281;48.878;9.394;2022-07-29T04:59:33;4.80;;;4.10;;
10467;SDS011;5281;48.878;9.394;2022-07-29T05:02:00;6.07;;;3.95;;
10467;SDS011;5281;48.878;9.394;2022-07-29T05:04:27;5.78;;;4.47;;
10467;SDS011;5281;48.878;9.394;2022-07-29T05:06:54;5.57;;;3.70;;
10467;SDS011;5281;48.878;9.394;2022-07-29T05:09:21;4.07;;;3.60;;
10467;SDS011;5281;48.878;9.394;2022-07-29T05:11:48;4.03;;;3.35;;
10467;SDS011;5281;48.878;9.394;2022-07-29T05:14:14;5.47;;;4.07;;
10467;SDS011;5281;48.878;9.394;2022-07-29T05:16:41;5.75;;;3.42;;
10467;SDS011;5281;48.878;9.394;2022-07-29T05:19:08;4.82;;;3.85;;
10467;SDS011;5281;48.878;9.394;2022-07-29T05:21:35;4.75;;;3.47;;
10467;SDS011;5281;48.878;9.394;2022-07-29T05:24:03;3.90;;;3.35;;
10467;SDS011;5281;48.878;9.394;2022-07-29T05:26:30;4.80;;;3.58;;
10467;SDS011;5281;48.878;9.394;2022-07-29T05:28:57;6.85;;;3.38;;
10467;SDS011;5281;48.878;9.394;2022-07-29T05:31:23;4.25;;;3.50;;
10467;SDS011;5281;48.878;9.394;2022-07-29T05:33:50;5.45;;;3.47;;
10467;SDS011;5281;48.878;9.394;2022-07-29T05:36:17;4.78;;;3.15;;
10467;SDS011;5281;48.878;9.394;2022-07-29T05:38:43;4.70;;;3.20;;
10467;SDS011;5281;48.878;9.394;2022-07-29T05:41:11;4.80;;;3.30;;
10467;SDS011;5281;48.878;9.394;2022-07-29T05:43:38;3.83;;;2.92;;
10467;SDS011;5281;48.878;9.394;2022-07-29T05:46:05;4.00;;;3.13;;
10467;SDS011;5281;48.878;9.394;2022-07-29T05:48:31;4.43;;;3.05;;
10467;SDS011;5281;48.878;9.394;2022-07-29T05:50:58;3.75;;;2.88;;
10467;SDS011;5281;48.878;9.394;2022-07-29T05:53:25;4.40;;;3.20;;
10467;SDS011;5281;48.878;9.394;2022-07-29T05:55:51;4.32;;;3.10;;
10467;SDS011;5281;48.878;9.394;2022-07-29T05:58:19;4.40;;;2.88;;
10467;SDS011;5281;48.878;9.394;2022-07-29T06:00:46;4.10;;;2.53;;
10467;SDS011;5281;48.878;9.394;2022-07-29T06:03:13;4.00;;;2.95;;
10467;SDS011;5281;48.878;9.394;2022-07-29T06:05:39;4.47;;;3.00;;
10467;SDS011;5281;48.878;9.394;2022-07-29T06:08:06;2.97;;;2.50;;
10467;SDS011;5281;48.878;9.394;2022-07-29T06:10:34;4.15;;;2.63;;
10467;SDS011;5281;48.878;9.394;2022-07-29T06:13:01;4.07;;;2.70;;
10467;SDS011;5281;48.878;9.394;2022-07-29T06:15:29;4.07;;;2.67;;
10467;SDS011;5281;48.878;9.394;2022-07-29T06:17:56;6.82;;;2.50;;
10467;SDS011;5281;48.878;9.394;2022-07-29T06:20:22;6.45;;;3.22;;
10467;SDS011;5281;48.878;9.394;2022-07-29T06:22:49;3.33;;;2.35;;
10467;SDS011;5281;48.878;9.394;2022-07-29T06:25:16;3.22;;;2.15;;
10467;SDS011;5281;48.878;9.394;2022-07-29T06:27:43;3.55;;;2.42;;
10467;SDS011;5281;48.878;9.394;2022-07-29T06:30:10;2.50;;;2.03;;
10467;SDS011;5281;48.878;9.394;2022-07-29T06:32:38;2.88;;;2.20;;
10467;SDS011;5281;48.878;9.394;2022-07-29T06:35:05;3.13;;;2.15;;
10467;SDS011;5281;48.878;9.394;2022-07-29T06:37:32;2.95;;;2.28;;
10467;SDS011;5281;48.878;9.394;2022-07-29T06:40:00;3.38;;;2.20;;
10467;SDS011;5281;48.878;9.394;2022-07-29T06:42:44;4.38;;;2.50;;
10467;SDS011;5281;48.878;9.394;2022-07-29T06:45:10;2.20;;;1.90;;
10467;SDS011;5281;48.878;9.394;2022-07-29T07:00:34;3.33;;;1.95;;
10467;SDS011;5281;48.878;9.394;2022-07-29T07:03:01;1.85;;;1.70;;
10467;SDS011;5281;48.878;9.394;2022-07-29T07:05:27;2.05;;;1.90;;
10467;SDS011;5281;48.878;9.394;2022-07-29T07:07:54;3.60;;;2.10;;
10467;SDS011;5281;48.878;9.394;2022-07-29T07:10:21;3.67;;;2.00;;
10467;SDS011;5281;48.878;9.394;2022-07-29T07:12:47;2.60;;;2.15;;
10467;SDS011;5281;48.878;9.394;2022-07-29T07:15:15;2.60;;;2.00;;
10467;SDS011;5281;48.878;9.394;2022-07-29T07:17:46;2.80;;;2.20;;
10467;SDS011;5281;48.878;9.394;2022-07-29T07:20:13;2.97;;;1.90;;
10467;SDS011;5281;48.878;9.394;2022-07-29T07:22:40;5.22;;;2.22;;
10467;SDS011;5281;48.878;9.394;2022-07-29T07:25:06;3.28;;;1.67;;
10467;SDS011;5281;48.878;9.394;2022-07-29T07:27:34;2.58;;;1.83;;
10467;SDS011;5281;48.878;9.394;2022-07-29T07:30:00;5.55;;;1.92;;
10467;SDS011;5281;48.878;9.394;2022-07-29T07:32:29;4.18;;;1.95;;
10467;SDS011;5281;48.878;9.394;2022-07-29T07:34:55;3.80;;;1.73;;
10467;SDS011;5281;48.878;9.394;2022-07-29T07:37:22;3.35;;;1.80;;
10467;SDS011;5281;48.878;9.394;2022-07-29T07:39:49;2.35;;;2.00;;
10467;SDS011;5281;48.878;9.394;2022-07-29T07:42:16;2.80;;;1.77;;
10467;SDS011;5281;48.878;9.394;2022-07-29T07:44:43;1.75;;;1.58;;
10467;SDS011;5281;48.878;9.394;2022-07-29T07:47:10;2.40;;;1.65;;
10467;SDS011;5281;48.878;9.394;2022-07-29T07:49:38;3.08;;;1.90;;
10467;SDS011;5281;48.878;9.394;2022-07-29T07:52:05;2.13;;;1.60;;
10467;SDS011;5281;48.878;9.394;2022-07-29T07:54:32;3.17;;;1.90;;
10467;SDS011;5281;48.878;9.394;2022-07-29T07:56:58;2.30;;;1.70;;
10467;SDS011;5281;48.878;9.394;2022-07-29T07:59:25;3.53;;;1.92;;
10467;SDS011;5281;48.878;9.394;2022-07-29T08:01:52;3.42;;;2.20;;
10467;SDS011;5281;48.878;9.394;2022-07-29T08:04:18;2.00;;;1.73;;
10467;SDS011;5281;48.878;9.394;2022-07-29T08:06:46;4.57;;;1.98;;
10467;SDS011;5281;48.878;9.394;2022-07-29T08:09:14;3.67;;;1.90;;
10467;SDS011;5281;48.878;9.394;2022-07-29T08:11:41;3.83;;;1.80;;
10467;SDS011;5281;48.878;9.394;2022-07-29T08:14:08;5.18;;;2.00;;
10467;SDS011;5281;48.878;9.394;2022-07-29T08:16:34;3.00;;;2.17;;
10467;SDS011;5281;48.878;9.394;2022-07-29T08:19:01;2.55;;;2.00;;
10467;SDS011;5281;48.878;9.394;2022-07-29T08:21:28;4.82;;;1.92;;
10467;SDS011;5281;48.878;9.394;2022-07-29T08:23:56;3.17;;;1.73;;
10467;SDS011;5281;48.878;9.394;2022-07-29T08:26:36;2.65;;;1.85;;
10467;SDS011;5281;48.878;9.394;2022-07-29T08:29:03;3.58;;;2.22;;
10467;SDS011;5281;48.878;9.394;2022-07-29T08:31:30;3.53;;;2.08;;
10467;SDS011;5281;48.878;9.394;2022-07-29T08:33:56;2.17;;;1.90;;
10467;SDS011;5281;48.878;9.394;2022-07-29T08:36:24;4.07;;;2.05;;
10467;SDS011;5281;48.878;9.394;2022-07-29T08:38:51;3.90;;;2.40;;
10467;SDS011;5281;48.878;9.394;2022-07-29T08:41:19;3.03;;;2.03;;
10467;SDS011;5281;48.878;9.394;2022-07-29T08:43:46;3.78;;;2.10;;
10467;SDS011;5281;48.878;9.394;2022-07-29T08:46:14;2.60;;;2.10;;
10467;SDS011;5281;48.878;9.394;2022-07-29T08:48:41;5.18;;;2.25;;
10467;SDS011;5281;48.878;9.394;2022-07-29T08:51:08;5.35;;;2.20;;
10467;SDS011;5281;48.878;9.394;2022-07-29T08:53:40;3.45;;;2.50;;
10467;SDS011;5281;48.878;9.394;2022-07-29T08:56:11;3.85;;;2.15;;
10467;SDS011;5281;48.878;9.394;2022-07-29T08:58:39;4.43;;;2.50;;
10467;SDS011;5281;48.878;9.394;2022-07-29T09:01:07;3.63;;;2.47;;
10467;SDS011;5281;48.878;9.394;2022-07-29T09:03:36;4.18;;;2.50;;
10467;SDS011;5281;48.878;9.394;2022-07-29T09:06:03;3.30;;;2.53;;
10467;SDS011;5281;48.878;9.394;2022-07-29T09:08:31;2.92;;;2.25;;
10467;SDS011;5281;48.878;9.394;2022-07-29T09:11:00;3.38;;;2.65;;
10467;SDS011;5281;48.878;9.394;2022-07-29T09:13:28;3.97;;;2.67;;
10467;SDS011;5281;48.878;9.394;2022-07-29T09:15:56;5.15;;;2.97;;
10467;SDS011;5281;48.878;9.394;2022-07-29T09:18:35;3.28;;;2.72;;
10467;SDS011;5281;48.878;9.394;2022-07-29T09:21:03;3.08;;;2.60;;
10467;SDS011;5281;48.878;9.394;2022-07-29T09:24:02;5.05;;;2.40;;
10467;SDS011;5281;48.878;9.394;2022-07-29T09:26:33;6.20;;;3.10;;
10467;SDS011;5281;48.878;9.394;2022-07-29T09:29:01;3.55;;;2.60;;
10467;SDS011;5281;48.878;9.394;2022-07-29T09:31:37;3.38;;;2.70;;
10467;SDS011;5281;48.878;9.394;2022-07-29T09:34:05;5.63;;;2.83;;
10467;SDS011;5281;48.878;9.394;2022-07-29T09:36:38;3.60;;;2.83;;
10467;SDS011;5281;48.878;9.394;2022-07-29T09:39:05;4.88;;;3.03;;
10467;SDS011;5281;48.878;9.394;2022-07-29T09:41:43;6.07;;;3.00;;
10467;SDS011;5281;48.878;9.394;2022-07-29T09:44:12;4.28;;;2.92;;
10467;SDS011;5281;48.878;9.394;2022-07-29T09:46:41;6.75;;;3.10;;
10467;SDS011;5281;48.878;9.394;2022-07-29T09:49:21;6.07;;;3.00;;
10467;SDS011;5281;48.878;9.394;2022-07-29T09:51:58;3.20;;;2.42;;
10467;SDS011;5281;48.878;9.394;2022-07-29T09:54:26;5.00;;;3.10;;
10467;SDS011;5281;48.878;9.394;2022-07-29T09:56:53;5.32;;;2.90;;
10467;SDS011;5281;48.878;9.394;2022-07-29T09:59:21;3.80;;;2.90;;
10467;SDS011;5281;48.878;9.394;2022-07-29T10:01:52;6.15;;;3.10;;
10467;SDS011;5281;48.878;9.394;2022-07-29T10:04:19;4.22;;;2.95;;
10467;SDS011;5281;48.878;9.394;2022-07-29T10:06:55;5.55;;;2.97;;
10467;SDS011;5281;48.878;9.394;2022-07-29T10:09:23;4.95;;;3.20;;
10467;SDS011;5281;48.878;9.394;2022-07-29T10:12:02;6.05;;;3.05;;
10467;SDS011;5281;48.878;9.394;2022-07-29T10:14:30;5.22;;;3.45;;
10467;SDS011;5281;48.878;9.394;2022-07-29T10:17:00;3.75;;;3.20;;
10467;SDS011;5281;48.878;9.394;2022-07-29T10:19:28;3.70;;;3.08;;
10467;SDS011;5281;48.878;9.394;2022-07-29T10:21:56;5.10;;;2.78;;
10467;SDS011;5281;48.878;9.394;2022-07-29T10:24:24;5.60;;;3.13;;
10467;SDS011;5281;48.878;9.394;2022-07-29T10:26:52;4.68;;;3.38;;
10467;SDS011;5281;48.878;9.394;2022-07-29T10:29:20;5.13;;;3.13;;
10467;SDS011;5281;48.878;9.394;2022-07-29T10:31:48;5.28;;;3.10;;
10467;SDS011;5281;48.878;9.394;2022-07-29T10:34:27;8.20;;;3.50;;
10467;SDS011;5281;48.878;9.394;2022-07-29T10:37:03;9.05;;;4.25;;
10467;SDS011;5281;48.878;9.394;2022-07-29T10:39:41;4.82;;;3.60;;
10467;SDS011;5281;48.878;9.394;2022-07-29T10:42:16;4.60;;;3.53;;
10467;SDS011;5281;48.878;9.394;2022-07-29T10:44:45;6.50;;;3.22;;
10467;SDS011;5281;48.878;9.394;2022-07-29T10:47:22;5.03;;;3.15;;
10467;SDS011;5281;48.878;9.394;2022-07-29T10:49:58;4.38;;;3.05;;
10467;SDS011;5281;48.878;9.394;2022-07-29T10:55:30;4.45;;;3.05;;
10467;SDS011;5281;48.878;9.394;2022-07-29T10:58:10;5.38;;;3.17;;
10467;SDS011;5281;48.878;9.394;2022-07-29T11:00:38;7.43;;;3.30;;
10467;SDS011;5281;48.878;9.394;2022-07-29T11:03:05;5.97;;;3.17;;
10467;SDS011;5281;48.878;9.394;2022-07-29T11:05:48;7.10;;;5.57;;
10467;SDS011;5281;48.878;9.394;2022-07-29T11:08:22;6.53;;;3.40;;
10467;SDS011;5281;48.878;9.394;2022-07-29T11:10:51;7.82;;;3.55;;
10467;SDS011;5281;48.878;9.394;2022-07-29T11:16:15;8.70;;;3.58;;
10467;SDS011;5281;48.878;9.394;2022-07-29T11:21:48;6.13;;;3.30;;
10467;SDS011;5281;48.878;9.394;2022-07-29T11:24:16;5.57;;;3.22;;
10467;SDS011;5281;48.878;9.394;2022-07-29T11:26:45;6.47;;;2.80;;
10467;SDS011;5281;48.878;9.394;2022-07-29T11:29:32;6.28;;;3.47;;
10467;SDS011;5281;48.878;9.394;2022-07-29T11:32:11;5.38;;;3.30;;
10467;SDS011;5281;48.878;9.394;2022-07-29T11:34:41;8.30;;;4.15;;
10467;SDS011;5281;48.878;9.394;2022-07-29T11:37:16;6.38;;;3.47;;
10467;SDS011;5281;48.878;9.394;2022-07-29T11:39:46;8.68;;;6.72;;
10467;SDS011;5281;48.878;9.394;2022-07-29T11:42:37;7.75;;;4.55;;
10467;SDS011;5281;48.878;9.394;2022-07-29T11:45:06;6.90;;;3.63;;
10467;SDS011;5281;48.878;9.394;2022-07-29T11:47:35;9.32;;;3.90;;
10467;SDS011;5281;48.878;9.394;2022-07-29T11:50:04;12.23;;;4.07;;
10467;SDS011;5281;48.878;9.394;2022-07-29T11:52:35;6.70;;;3.40;;
10467;SDS011;5281;48.878;9.394;2022-07-29T11:55:08;9.00;;;4.03;;
10467;SDS011;5281;48.878;9.394;2022-07-29T11:57:37;14.20;;;4.82;;
10467;SDS011;5281;48.878;9.394;2022-07-29T12:00:11;9.10;;;4.35;;
10467;SDS011;5281;48.878;9.394;2022-07-29T12:02:40;6.70;;;4.40;;
10467;SDS011;5281;48.878;9.394;2022-07-29T12:05:08;6.32;;;4.00;;
10467;SDS011;5281;48.878;9.394;2022-07-29T12:07:37;10.82;;;4.30;;
10467;SDS011;5281;48.878;9.394;2022-07-29T12:10:05;14.73;;;6.72;;
10467;SDS011;5281;48.878;9.394;2022-07-29T12:12:33;5.95;;;4.82;;
10467;SDS011;5281;48.878;9.394;2022-07-29T12:15:13;11.82;;;5.20;;
10467;SDS011;5281;48.878;9.394;2022-07-29T12:17:42;10.18;;;4.60;;
10467;SDS011;5281;48.878;9.394;2022-07-29T12:20:09;8.23;;;5.13;;
10467;SDS011;5281;48.878;9.394;2022-07-29T12:22:40;8.18;;;5.07;;
10467;SDS011;5281;48.878;9.394;2022-07-29T12:25:09;5.88;;;4.35;;
10467;SDS011;5281;48.878;9.394;2022-07-29T12:27:40;6.47;;;4.50;;
10467;SDS011;5281;48.878;9.394;2022-07-29T12:30:08;5.15;;;3.92;;
10467;SDS011;5281;48.878;9.394;2022-07-29T12:32:37;6.07;;;3.70;;
10467;SDS011;5281;48.878;9.394;2022-07-29T12:35:08;6.45;;;3.95;;
10467;SDS011;5281;48.878;9.394;2022-07-29T12:37:37;8.10;;;4.10;;
10467;SDS011;5281;48.878;9.394;2022-07-29T12:40:08;5.30;;;4.30;;
10467;SDS011;5281;48.878;9.394;2022-07-29T12:42:36;7.30;;;4.60;;
10467;SDS011;5281;48.878;9.394;2022-07-29T12:45:04;6.13;;;3.92;;
10467;SDS011;5281;48.878;9.394;2022-07-29T12:47:32;8.90;;;4.05;;
10467;SDS011;5281;48.878;9.394;2022-07-29T12:50:08;7.80;;;4.30;;
10467;SDS011;5281;48.878;9.394;2022-07-29T12:52:36;8.75;;;3.60;;
10467;SDS011;5281;48.878;9.394;2022-07-29T12:55:05;6.28;;;3.22;;
10467;SDS011;5281;48.878;9.394;2022-07-29T12:57:43;4.95;;;3.15;;
10467;SDS011;5281;48.878;9.394;2022-07-29T13:00:12;4.68;;;2.92;;
10467;SDS011;5281;48.878;9.394;2022-07-29T13:02:40;6.03;;;3.92;;
10467;SDS011;5281;48.878;9.394;2022-07-29T13:05:09;5.38;;;2.85;;
10467;SDS011;5281;48.878;9.394;2022-07-29T13:07:37;4.57;;;2.70;;
10467;SDS011;5281;48.878;9.394;2022-07-29T13:10:13;16.73;;;3.75;;
10467;SDS011;5281;48.878;9.394;2022-07-29T13:15:31;4.82;;;2.33;;
10467;SDS011;5281;48.878;9.394;2022-07-29T13:17:58;2.35;;;1.80;;
10467;SDS011;5281;48.878;9.394;2022-07-29T13:20:26;4.22;;;1.60;;
10467;SDS011;5281;48.878;9.394;2022-07-29T13:22:55;2.47;;;1.95;;
10467;SDS011;5281;48.878;9.394;2022-07-29T13:25:25;2.83;;;2.00;;
10467;SDS011;5281;48.878;9.394;2022-07-29T13:27:53;2.35;;;1.70;;
10467;SDS011;5281;48.878;9.394;2022-07-29T13:30:20;3.97;;;1.98;;
10467;SDS011;5281;48.878;9.394;2022-07-29T13:32:48;2.25;;;1.70;;
10467;SDS011;5281;48.878;9.394;2022-07-29T13:35:15;2.92;;;1.90;;
10467;SDS011;5281;48.878;9.394;2022-07-29T13:37:42;2.92;;;1.80;;
10467;SDS011;5281;48.878;9.394;2022-07-29T13:40:09;3.33;;;1.77;;
10467;SDS011;5281;48.878;9.394;2022-07-29T13:42:38;5.03;;;2.10;;
10467;SDS011;5281;48.878;9.394;2022-07-29T13:45:06;3.70;;;1.58;;
10467;SDS011;5281;48.878;9.394;2022-07-29T13:47:34;2.22;;;2.03;;
10467;SDS011;5281;48.878;9.394;2022-07-29T13:50:01;6.00;;;1.90;;
10467;SDS011;5281;48.878;9.394;2022-07-29T13:52:28;5.28;;;2.08;;
10467;SDS011;5281;48.878;9.394;2022-07-29T13:54:55;4.43;;;2.33;;
10467;SDS011;5281;48.878;9.394;2022-07-29T13:57:21;7.28;;;2.20;;
10467;SDS011;5281;48.878;9.394;2022-07-29T13:59:49;4.03;;;1.95;;
10467;SDS011;5281;48.878;9.394;2022-07-29T14:02:16;3.90;;;2.42;;
10467;SDS011;5281;48.878;9.394;2022-07-29T14:04:43;5.25;;;2.17;;
10467;SDS011;5281;48.878;9.394;2022-07-29T14:07:10;5.38;;;2.33;;
10467;SDS011;5281;48.878;9.394;2022-07-29T14:09:38;3.00;;;2.20;;
10467;SDS011;5281;48.878;9.394;2022-07-29T14:12:05;2.85;;;2.30;;
10467;SDS011;5281;48.878;9.394;2022-07-29T14:14:32;5.97;;;3.92;;
10467;SDS011;5281;48.878;9.394;2022-07-29T14:17:01;7.18;;;2.40;;
10467;SDS011;5281;48.878;9.394;2022-07-29T14:19:30;4.05;;;2.53;;
10467;SDS011;5281;48.878;9.394;2022-07-29T14:22:00;3.45;;;2.40;;
10467;SDS011;5281;48.878;9.394;2022-07-29T14:24:27;5.40;;;2.90;;
10467;SDS011;5281;48.878;9.394;2022-07-29T14:26:54;3.60;;;2.40;;
10467;SDS011;5281;48.878;9.394;2022-07-29T14:29:22;3.00;;;2.70;;
10467;SDS011;5281;48.878;9.394;2022-07-29T14:31:48;5.63;;;2.70;;
10467;SDS011;5281;48.878;9.394;2022-07-29T14:34:16;3.95;;;2.33;;
10467;SDS011;5281;48.878;9.394;2022-07-29T14:36:43;2.97;;;2.58;;
10467;SDS011;5281;48.878;9.394;2022-07-29T14:39:10;4.15;;;2.42;;
10467;SDS011;5281;48.878;9.394;2022-07-29T14:41:37;3.10;;;2.63;;
10467;SDS011;5281;48.878;9.394;2022-07-29T14:44:04;3.20;;;2.65;;
10467;SDS011;5281;48.878;9.394;2022-07-29T14:46:31;4.07;;;2.88;;
10467;SDS011;5281;48.878;9.394;2022-07-29T14:48:58;3.20;;;2.90;;
10467;SDS011;5281;48.878;9.394;2022-07-29T14:51:26;4.43;;;2.92;;
10467;SDS011;5281;48.878;9.394;2022-07-29T14:53:53;4.22;;;2.83;;
10467;SDS011;5281;48.878;9.394;2022-07-29T14:56:21;3.72;;;2.80;;
10467;SDS011;5281;48.878;9.394;2022-07-29T14:58:47;5.05;;;2.85;;
10467;SDS011;5281;48.878;9.394;2022-07-29T15:01:14;4.05;;;2.92;;
10467;SDS011;5281;48.878;9.394;2022-07-29T15:03:41;4.93;;;3.50;;
10467;SDS011;5281;48.878;9.394;2022-07-29T15:06:08;4.53;;;3.33;;
10467;SDS011;5281;48.878;9.394;2022-07-29T15:08:36;3.63;;;2.97;;
10467;SDS011;5281;48.878;9.394;2022-07-29T15:11:02;3.35;;;2.88;;
10467;SDS011;5281;48.878;9.394;2022-07-29T15:13:29;4.75;;;3.08;;
10467;SDS011;5281;48.878;9.394;2022-07-29T15:15:56;4.20;;;3.28;;
10467;SDS011;5281;48.878;9.394;2022-07-29T15:18:22;6.28;;;2.97;;
10467;SDS011;5281;48.878;9.394;2022-07-29T15:20:49;4.55;;;3.53;;
10467;SDS011;5281;48.878;9.394;2022-07-29T15:23:16;3.53;;;2.78;;
10467;SDS011;5281;48.878;9.394;2022-07-29T15:25:44;3.67;;;3.20;;
10467;SDS011;5281;48.878;9.394;2022-07-29T15:28:11;5.00;;;3.35;;
10467;SDS011;5281;48.878;9.394;2022-07-29T15:30:37;3.13;;;2.50;;
10467;SDS011;5281;48.878;9.394;2022-07-29T15:33:06;3.88;;;3.03;;
10467;SDS011;5281;48.878;9.394;2022-07-29T15:35:34;3.70;;;2.75;;
10467;SDS011;5281;48.878;9.394;2022-07-29T15:38:01;5.38;;;2.70;;
10467;SDS011;5281;48.878;9.394;2022-07-29T15:40:28;3.92;;;2.83;;
10467;SDS011;5281;48.878;9.394;2022-07-29T15:42:56;4.82;;;3.00;;
10467;SDS011;5281;48.878;9.394;2022-07-29T15:45:25;3.97;;;3.50;;
10467;SDS011;5281;48.878;9.394;2022-07-29T15:47:53;3.35;;;3.05;;
10467;SDS011;5281;48.878;9.394;2022-07-29T15:50:19;5.50;;;2.80;;
10467;SDS011;5281;48.878;9.394;2022-07-29T15:52:46;3.70;;;2.92;;
10467;SDS011;5281;48.878;9.394;2022-07-29T15:55:13;4.50;;;3.50;;
10467;SDS011;5281;48.878;9.394;2022-07-29T15:57:40;3.63;;;3.20;;
10467;SDS011;5281;48.878;9.394;2022-07-29T16:00:09;9.57;;;4.03;;
10467;SDS011;5281;48.878;9.394;2022-07-29T16:02:37;4.53;;;2.97;;
10467;SDS011;5281;48.878;9.394;2022-07-29T16:05:04;4.93;;;4.43;;
10467;SDS011;5281;48.878;9.394;2022-07-29T16:07:31;6.00;;;2.95;;
10467;SDS011;5281;48.878;9.394;2022-07-29T16:09:58;4.55;;;3.47;;
10467;SDS011;5281;48.878;9.394;2022-07-29T16:12:24;6.57;;;2.97;;
10467;SDS011;5281;48.878;9.394;2022-07-29T16:14:51;3.67;;;2.85;;
10467;SDS011;5281;48.878;9.394;2022-07-29T16:17:19;3.53;;;3.00;;
10467;SDS011;5281;48.878;9.394;2022-07-29T16:19:46;7.32;;;2.70;;
10467;SDS011;5281;48.878;9.394;2022-07-29T16:22:13;4.68;;;2.95;;
10467;SDS011;5281;48.878;9.394;2022-07-29T16:24:40;3.63;;;2.90;;
10467;SDS011;5281;48.878;9.394;2022-07-29T16:27:06;3.42;;;2.85;;